sensor_id;sensor_type;location;lat;lon;timestamp;pressure;altitude;pressure_sealevel;temperature;humidity
62152;BME280;48139;47.474;19.034;2024-02-26T05:01:27;99574.09;;;9.83;100.00
62152;BME280;48139;47.474;19.034;2024-02-26T05:04:33;99574.09;;;9.83;100.00
62152;BME280;48139;47.474;19.034;2024-02-26T05:07:41;99577.75;;;9.49;100.00
62152;BME280;48139;47.474;19.034;2024-02-26T05:10:47;99567.34;;;9.63;100.00
62152;BME280;48139;47.474;19.034;2024-02-26T05:13:50;99571.06;;;9.59;100.00
62152;BME280;48139;47.474;19.034;2024-02-26T05:16:53;99575.63;;;9.56;100.00
62152;BME280;48139;47.474;19.034;2024-02-26T05:19:55;99580.34;;;9.65;100.00
62152;BME280;48139;47.474;19.034;2024-02-26T05:22:59;99580.84;;;9.56;100.00
62152;BME280;48139;47.474;19.034;2024-02-26T05:26:01;99582.37;;;9.60;100.00
62152;BME280;48139;47.474;19.034;2024-02-26T05:29:04;99572.66;;;9.62;100.00
62152;BME280;48139;47.474;19.034;2024-02-26T05:32:07;99581.13;;;9.67;100.00
62152;BME280;48139;47.474;19.034;2024-02-26T05:35:09;99573.34;;;9.65;100.00
62152;BME280;48139;47.474;19.034;2024-02-26T05:38:12;99572.97;;;9.87;100.00
62152;BME280;48139;47.474;19.034;2024-02-26T05:41:15;99568.09;;;9.81;100.00
62152;BME280;48139;47.474;19.034;2024-02-26T05:44:18;99567.09;;;9.84;100.00
62152;BME280;48139;47.474;19.034;2024-02-26T05:47:21;99565.81;;;9.91;100.00
62152;BME280;48139;47.474;19.034;2024-02-26T05:50:24;99578.47;;;9.98;100.00
62152;BME280;48139;47.474;19.034;2024-02-26T05:53:26;99580.22;;;9.98;100.00
62152;BME280;48139;47.474;19.034;2024-02-26T05:56:29;99577.06;;;10.07;100.00
62152;BME280;48139;47.474;19.034;2024-02-26T05:59:32;99576.63;;;10.15;100.00
62152;BME280;48139;47.474;19.034;2024-02-26T06:02:34;99575.78;;;10.14;100.00
62152;BME280;48139;47.474;19.034;2024-02-26T06:05:37;99578.59;;;10.11;100.00
62152;BME280;48139;47.474;19.034;2024-02-26T06:08:40;99579.25;;;10.15;100.00
62152;BME280;48139;47.474;19.034;2024-02-26T06:11:43;99590.84;;;10.10;100.00
62152;BME280;48139;47.474;19.034;2024-02-26T06:14:45;99576.91;;;10.10;100.00
62152;BME280;48139;47.474;19.034;2024-02-26T06:17:48;99594.38;;;10.09;100.00
62152;BME280;48139;47.474;19.034;2024-02-26T06:20:51;99594.47;;;10.08;100.00
62152;BME280;48139;47.474;19.034;2024-02-26T06:23:54;99596.72;;;10.14;100.00
62152;BME280;48139;47.474;19.034;2024-02-26T06:26:58;99607.88;;;10.33;100.00
62152;BME280;48139;47.474;19.034;2024-02-26T06:30:02;99597.13;;;10.38;100.00
62152;BME280;48139;47.474;19.034;2024-02-26T06:33:06;99600.41;;;10.41;100.00
62152;BME280;48139;47.474;19.034;2024-02-26T06:36:10;99596.78;;;10.58;100.00
62152;BME280;48139;47.474;19.034;2024-02-26T06:39:12;99601.53;;;10.51;100.00
62152;BME280;48139;47.474;19.034;2024-02-26T06:42:15;99602.03;;;10.58;100.00
62152;BME280;48139;47.474;19.034;2024-02-26T06:45:19;99605.22;;;10.63;100.00
62152;BME280;48139;47.474;19.034;2024-02-26T06:48:24;99599.13;;;10.63;100.00
62152;BME280;48139;47.474;19.034;2024-02-26T06:51:31;99599.25;;;10.61;100.00
62152;BME280;48139;47.474;19.034;2024-02-26T06:54:34;99603.88;;;10.56;100.00
62152;BME280;48139;47.474;19.034;2024-02-26T06:57:36;99599.81;;;10.66;100.00
62152;BME280;48139;47.474;19.034;2024-02-26T07:00:42;99607.19;;;10.60;100.00
62152;BME280;48139;47.474;19.034;2024-02-26T07:03:45;99609.12;;;10.56;100.00
62152;BME280;48139;47.474;19.034;2024-02-26T07:06:48;99614.97;;;10.75;100.00
62152;BME280;48139;47.474;19.034;2024-02-26T07:09:51;99613.13;;;10.91;100.00
62152;BME280;48139;47.474;19.034;2024-02-26T07:12:54;99607.41;;;11.13;100.00
62152;BME280;48139;47.474;19.034;2024-02-26T07:15:56;99601.91;;;11.18;100.00
62152;BME280;48139;47.474;19.034;2024-02-26T07:19:00;99605.34;;;11.32;100.00
62152;BME280;48139;47.474;19.034;2024-02-26T07:22:03;99613.22;;;11.18;100.00
62152;BME280;48139;47.474;19.034;2024-02-26T07:25:06;99611.81;;;11.41;100.00
62152;BME280;48139;47.474;19.034;2024-02-26T07:28:10;99609.41;;;11.65;100.00
62152;BME280;48139;47.474;19.034;2024-02-26T07:31:13;99613.34;;;11.86;100.00
62152;BME280;48139;47.474;19.034;2024-02-26T07:34:16;99604.22;;;11.92;100.00
62152;BME280;48139;47.474;19.034;2024-02-26T07:37:19;99618.53;;;12.00;100.00
62152;BME280;48139;47.474;19.034;2024-02-26T07:40:21;99625.84;;;11.95;100.00
62152;BME280;48139;47.474;19.034;2024-02-26T07:43:24;99620.13;;;12.30;100.00
62152;BME280;48139;47.474;19.034;2024-02-26T07:46:27;99626.25;;;12.43;100.00
62152;BME280;48139;47.474;19.034;2024-02-26T07:49:29;99629.66;;;12.31;100.00
62152;BME280;48139;47.474;19.034;2024-02-26T07:52:32;99628.75;;;12.44;100.00
62152;BME280;48139;47.474;19.034;2024-02-26T07:55:35;99623.72;;;12.41;100.00
62152;BME280;48139;47.474;19.034;2024-02-26T07:58:37;99622.91;;;12.27;100.00
62152;BME280;48139;47.474;19.034;2024-02-26T08:01:40;99630.19;;;12.23;100.00
62152;BME280;48139;47.474;19.034;2024-02-26T08:04:44;99635.28;;;12.51;100.00
62152;BME280;48139;47.474;19.034;2024-02-26T08:07:47;99633.63;;;12.63;100.00
62152;BME280;48139;47.474;19.034;2024-02-26T08:10:51;99633.09;;;12.71;100.00
62152;BME280;48139;47.474;19.034;2024-02-26T08:13:54;99638.28;;;12.98;100.00
62152;BME280;48139;47.474;19.034;2024-02-26T08:16:57;99642.91;;;13.07;100.00
62152;BME280;48139;47.474;19.034;2024-02-26T08:20:00;99640.41;;;13.05;100.00
62152;BME280;48139;47.474;19.034;2024-02-26T08:23:03;99638.00;;;13.27;100.00
62152;BME280;48139;47.474;19.034;2024-02-26T08:26:06;99645.19;;;13.62;100.00
62152;BME280;48139;47.474;19.034;2024-02-26T08:29:13;99639.53;;;13.55;100.00
62152;BME280;48139;47.474;19.034;2024-02-26T08:32:15;99636.91;;;13.55;100.00
62152;BME280;48139;47.474;19.034;2024-02-26T08:35:19;99639.81;;;13.63;100.00
62152;BME280;48139;47.474;19.034;2024-02-26T08:38:22;99640.59;;;13.40;100.00
62152;BME280;48139;47.474;19.034;2024-02-26T08:41:27;99639.47;;;13.19;100.00
62152;BME280;48139;47.474;19.034;2024-02-26T08:44:30;99642.06;;;12.93;100.00
62152;BME280;48139;47.474;19.034;2024-02-26T08:47:33;99638.59;;;12.68;100.00
62152;BME280;48139;47.474;19.034;2024-02-26T08:50:35;99629.72;;;12.56;100.00
62152;BME280;48139;47.474;19.034;2024-02-26T08:53:38;99639.09;;;12.60;100.00
62152;BME280;48139;47.474;19.034;2024-02-26T08:56:45;99643.47;;;12.47;100.00
62152;BME280;48139;47.474;19.034;2024-02-26T08:59:49;99642.59;;;12.34;100.00
62152;BME280;48139;47.474;19.034;2024-02-26T09:02:51;99643.44;;;12.34;100.00
62152;BME280;48139;47.474;19.034;2024-02-26T09:05:54;99643.03;;;12.40;100.00
62152;BME280;48139;47.474;19.034;2024-02-26T09:08:57;99646.25;;;12.31;100.00
62152;BME280;48139;47.474;19.034;2024-02-26T09:12:03;99652.38;;;12.05;100.00
62152;BME280;48139;47.474;19.034;2024-02-26T09:15:07;99660.66;;;11.99;100.00
62152;BME280;48139;47.474;19.034;2024-02-26T09:18:10;99658.56;;;12.04;100.00
62152;BME280;48139;47.474;19.034;2024-02-26T09:21:12;99656.16;;;12.13;100.00
62152;BME280;48139;47.474;19.034;2024-02-26T09:24:16;99651.41;;;12.33;100.00
62152;BME280;48139;47.474;19.034;2024-02-26T09:27:18;99664.34;;;12.36;100.00
62152;BME280;48139;47.474;19.034;2024-02-26T09:30:21;99657.22;;;12.50;100.00
62152;BME280;48139;47.474;19.034;2024-02-26T09:33:24;99659.88;;;12.63;100.00
62152;BME280;48139;47.474;19.034;2024-02-26T09:36:27;99653.22;;;12.84;100.00
62152;BME280;48139;47.474;19.034;2024-02-26T09:39:30;99661.28;;;12.94;100.00
62152;BME280;48139;47.474;19.034;2024-02-26T09:42:34;99658.56;;;12.96;100.00
62152;BME280;48139;47.474;19.034;2024-02-26T09:45:37;99671.63;;;13.10;100.00
62152;BME280;48139;47.474;19.034;2024-02-26T09:48:42;99663.25;;;13.30;100.00
62152;BME280;48139;47.474;19.034;2024-02-26T09:51:45;99670.91;;;13.33;100.00
62152;BME280;48139;47.474;19.034;2024-02-26T09:54:49;99669.56;;;13.27;100.00
62152;BME280;48139;47.474;19.034;2024-02-26T09:57:53;99674.81;;;13.40;100.00
62152;BME280;48139;47.474;19.034;2024-02-26T10:00:57;99673.50;;;13.58;100.00
62152;BME280;48139;47.474;19.034;2024-02-26T10:04:03;99674.88;;;13.64;100.00
62152;BME280;48139;47.474;19.034;2024-02-26T10:07:10;99679.09;;;13.66;100.00
62152;BME280;48139;47.474;19.034;2024-02-26T10:10:14;99667.94;;;13.50;100.00
62152;BME280;48139;47.474;19.034;2024-02-26T10:13:17;99667.63;;;13.55;100.00
62152;BME280;48139;47.474;19.034;2024-02-26T10:16:22;99673.00;;;13.53;100.00
62152;BME280;48139;47.474;19.034;2024-02-26T10:19:26;99674.91;;;13.39;100.00
62152;BME280;48139;47.474;19.034;2024-02-26T10:22:29;99665.44;;;13.36;100.00
62152;BME280;48139;47.474;19.034;2024-02-26T10:25:32;99665.97;;;13.41;100.00
62152;BME280;48139;47.474;19.034;2024-02-26T10:28:37;99670.25;;;13.67;100.00
62152;BME280;48139;47.474;19.034;2024-02-26T10:31:42;99663.91;;;14.06;100.00
62152;BME280;48139;47.474;19.034;2024-02-26T10:34:44;99662.09;;;14.43;100.00
62152;BME280;48139;47.474;19.034;2024-02-26T10:37:48;99656.63;;;14.92;100.00
62152;BME280;48139;47.474;19.034;2024-02-26T10:40:51;99664.28;;;14.96;100.00
62152;BME280;48139;47.474;19.034;2024-02-26T10:43:54;99655.56;;;15.06;100.00
62152;BME280;48139;47.474;19.034;2024-02-26T10:46:56;99648.00;;;15.02;100.00
62152;BME280;48139;47.474;19.034;2024-02-26T10:50:02;99639.53;;;14.63;100.00
62152;BME280;48139;47.474;19.034;2024-02-26T10:53:13;99636.31;;;14.82;100.00
62152;BME280;48139;47.474;19.034;2024-02-26T10:56:21;99634.53;;;14.82;100.00
62152;BME280;48139;47.474;19.034;2024-02-26T10:59:28;99634.22;;;14.98;100.00
62152;BME280;48139;47.474;19.034;2024-02-26T11:02:34;99630.56;;;14.77;100.00
62152;BME280;48139;47.474;19.034;2024-02-26T11:05:38;99631.94;;;14.47;100.00
62152;BME280;48139;47.474;19.034;2024-02-26T11:08:44;99627.25;;;14.86;100.00
62152;BME280;48139;47.474;19.034;2024-02-26T11:11:50;99630.38;;;15.13;100.00
62152;BME280;48139;47.474;19.034;2024-02-26T11:14:57;99624.88;;;15.39;100.00
62152;BME280;48139;47.474;19.034;2024-02-26T11:18:01;99630.28;;;15.48;100.00
62152;BME280;48139;47.474;19.034;2024-02-26T11:21:04;99635.44;;;15.39;100.00
62152;BME280;48139;47.474;19.034;2024-02-26T11:24:11;99633.38;;;15.20;100.00
62152;BME280;48139;47.474;19.034;2024-02-26T11:27:16;99640.25;;;15.67;100.00
62152;BME280;48139;47.474;19.034;2024-02-26T11:30:22;99642.91;;;15.67;100.00
62152;BME280;48139;47.474;19.034;2024-02-26T11:33:26;99632.22;;;15.57;100.00
62152;BME280;48139;47.474;19.034;2024-02-26T11:36:30;99628.37;;;15.28;100.00
62152;BME280;48139;47.474;19.034;2024-02-26T11:39:33;99623.06;;;15.06;100.00
62152;BME280;48139;47.474;19.034;2024-02-26T11:42:44;99623.09;;;15.17;100.00
62152;BME280;48139;47.474;19.034;2024-02-26T11:45:47;99626.34;;;15.43;100.00
62152;BME280;48139;47.474;19.034;2024-02-26T11:48:55;99627.91;;;15.56;100.00
62152;BME280;48139;47.474;19.034;2024-02-26T11:51:58;99625.81;;;15.82;100.00
62152;BME280;48139;47.474;19.034;2024-02-26T11:55:06;99627.41;;;15.73;100.00
62152;BME280;48139;47.474;19.034;2024-02-26T11:58:11;99634.59;;;15.71;100.00
62152;BME280;48139;47.474;19.034;2024-02-26T12:04:45;99623.78;;;15.86;100.00
62152;BME280;48139;47.474;19.034;2024-02-26T12:08:02;99631.00;;;15.72;100.00
62152;BME280;48139;47.474;19.034;2024-02-26T12:11:15;99622.94;;;15.85;100.00
62152;BME280;48139;47.474;19.034;2024-02-26T12:14:18;99622.94;;;15.85;100.00
62152;BME280;48139;47.474;19.034;2024-02-26T12:17:23;99620.81;;;15.46;100.00
62152;BME280;48139;47.474;19.034;2024-02-26T12:20:25;99615.78;;;15.54;100.00
62152;BME280;48139;47.474;19.034;2024-02-26T12:23:28;99621.03;;;15.76;100.00
62152;BME280;48139;47.474;19.034;2024-02-26T12:26:31;99616.06;;;15.94;100.00
62152;BME280;48139;47.474;19.034;2024-02-26T12:29:33;99614.94;;;16.07;100.00
62152;BME280;48139;47.474;19.034;2024-02-26T12:32:36;99620.34;;;15.41;100.00
62152;BME280;48139;47.474;19.034;2024-02-26T12:35:39;99614.81;;;15.10;100.00
62152;BME280;48139;47.474;19.034;2024-02-26T12:38:42;99620.03;;;14.77;100.00
62152;BME280;48139;47.474;19.034;2024-02-26T12:41:45;99611.19;;;14.89;100.00
62152;BME280;48139;47.474;19.034;2024-02-26T12:44:52;99608.53;;;14.78;100.00
62152;BME280;48139;47.474;19.034;2024-02-26T12:47:55;99607.09;;;14.74;100.00
62152;BME280;48139;47.474;19.034;2024-02-26T12:50:58;99614.00;;;14.64;100.00
62152;BME280;48139;47.474;19.034;2024-02-26T12:54:02;99614.28;;;14.83;100.00
62152;BME280;48139;47.474;19.034;2024-02-26T12:57:06;99609.66;;;14.98;100.00
62152;BME280;48139;47.474;19.034;2024-02-26T13:00:16;99605.47;;;15.17;100.00
62152;BME280;48139;47.474;19.034;2024-02-26T13:03:19;99606.28;;;15.40;100.00
62152;BME280;48139;47.474;19.034;2024-02-26T13:06:22;99612.53;;;15.28;100.00
62152;BME280;48139;47.474;19.034;2024-02-26T13:09:25;99621.66;;;15.35;100.00
62152;BME280;48139;47.474;19.034;2024-02-26T13:12:28;99623.81;;;15.30;100.00
62152;BME280;48139;47.474;19.034;2024-02-26T13:15:31;99617.31;;;15.12;100.00
62152;BME280;48139;47.474;19.034;2024-02-26T13:18:35;99620.78;;;15.12;100.00
62152;BME280;48139;47.474;19.034;2024-02-26T13:21:39;99611.69;;;15.16;100.00
62152;BME280;48139;47.474;19.034;2024-02-26T13:24:53;99614.56;;;15.36;100.00
62152;BME280;48139;47.474;19.034;2024-02-26T13:28:08;99605.06;;;15.44;100.00
62152;BME280;48139;47.474;19.034;2024-02-26T13:31:14;99612.66;;;15.71;100.00
62152;BME280;48139;47.474;19.034;2024-02-26T13:34:24;99611.78;;;15.93;100.00
62152;BME280;48139;47.474;19.034;2024-02-26T13:37:28;99608.72;;;16.08;100.00
62152;BME280;48139;47.474;19.034;2024-02-26T13:40:30;99610.56;;;15.97;100.00
62152;BME280;48139;47.474;19.034;2024-02-26T13:43:33;99609.03;;;15.72;100.00
62152;BME280;48139;47.474;19.034;2024-02-26T13:46:36;99600.94;;;15.96;100.00
62152;BME280;48139;47.474;19.034;2024-02-26T13:49:39;99614.78;;;15.77;100.00
62152;BME280;48139;47.474;19.034;2024-02-26T13:52:41;99608.81;;;15.42;100.00
62152;BME280;48139;47.474;19.034;2024-02-26T13:55:44;99612.53;;;15.28;100.00
62152;BME280;48139;47.474;19.034;2024-02-26T13:58:47;99610.50;;;15.43;100.00
62152;BME280;48139;47.474;19.034;2024-02-26T14:01:50;99607.84;;;15.65;100.00
62152;BME280;48139;47.474;19.034;2024-02-26T14:04:55;99607.38;;;15.49;100.00
62152;BME280;48139;47.474;19.034;2024-02-26T14:07:58;99594.78;;;15.41;100.00
62152;BME280;48139;47.474;19.034;2024-02-26T14:11:01;99596.31;;;15.44;100.00
62152;BME280;48139;47.474;19.034;2024-02-26T14:14:04;99591.31;;;15.41;100.00
62152;BME280;48139;47.474;19.034;2024-02-26T14:17:07;99591.53;;;15.26;100.00
62152;BME280;48139;47.474;19.034;2024-02-26T14:20:09;99593.94;;;15.18;100.00
62152;BME280;48139;47.474;19.034;2024-02-26T14:23:14;99594.56;;;15.11;100.00
62152;BME280;48139;47.474;19.034;2024-02-26T14:26:16;99585.53;;;15.24;100.00
62152;BME280;48139;47.474;19.034;2024-02-26T14:29:19;99590.94;;;15.34;100.00
62152;BME280;48139;47.474;19.034;2024-02-26T14:32:21;99586.97;;;15.40;100.00
62152;BME280;48139;47.474;19.034;2024-02-26T14:35:24;99589.84;;;15.37;100.00
62152;BME280;48139;47.474;19.034;2024-02-26T14:38:28;99586.75;;;15.20;100.00
62152;BME280;48139;47.474;19.034;2024-02-26T14:41:31;99589.03;;;15.14;100.00
62152;BME280;48139;47.474;19.034;2024-02-26T14:44:34;99592.72;;;15.00;100.00
62152;BME280;48139;47.474;19.034;2024-02-26T14:47:37;99597.63;;;14.93;100.00
62152;BME280;48139;47.474;19.034;2024-02-26T14:50:39;99597.87;;;14.90;100.00
62152;BME280;48139;47.474;19.034;2024-02-26T14:53:42;99598.00;;;14.89;100.00
62152;BME280;48139;47.474;19.034;2024-02-26T14:56:45;99602.06;;;14.82;100.00
62152;BME280;48139;47.474;19.034;2024-02-26T14:59:48;99594.88;;;14.73;100.00
62152;BME280;48139;47.474;19.034;2024-02-26T15:02:52;99595.34;;;14.67;100.00
62152;BME280;48139;47.474;19.034;2024-02-26T15:05:57;99597.44;;;14.62;100.00
62152;BME280;48139;47.474;19.034;2024-02-26T15:09:00;99594.31;;;14.57;100.00
62152;BME280;48139;47.474;19.034;2024-02-26T15:12:03;99602.47;;;14.53;100.00
62152;BME280;48139;47.474;19.034;2024-02-26T15:15:08;99605.69;;;14.46;100.00
62152;BME280;48139;47.474;19.034;2024-02-26T15:18:11;99615.94;;;14.38;100.00
62152;BME280;48139;47.474;19.034;2024-02-26T15:21:18;99608.72;;;14.29;100.00
62152;BME280;48139;47.474;19.034;2024-02-26T15:24:20;99619.81;;;14.21;100.00
62152;BME280;48139;47.474;19.034;2024-02-26T15:27:23;99617.63;;;14.15;100.00
62152;BME280;48139;47.474;19.034;2024-02-26T15:30:26;99616.41;;;14.08;100.00
62152;BME280;48139;47.474;19.034;2024-02-26T15:33:35;99610.53;;;14.04;100.00
62152;BME280;48139;47.474;19.034;2024-02-26T15:36:38;99617.84;;;13.88;100.00
62152;BME280;48139;47.474;19.034;2024-02-26T15:39:41;99621.16;;;13.79;100.00
62152;BME280;48139;47.474;19.034;2024-02-26T15:42:45;99625.75;;;13.52;100.00
62152;BME280;48139;47.474;19.034;2024-02-26T15:45:48;99621.78;;;13.33;100.00
62152;BME280;48139;47.474;19.034;2024-02-26T15:48:51;99629.59;;;13.22;100.00
62152;BME280;48139;47.474;19.034;2024-02-26T15:51:54;99633.03;;;13.10;100.00
62152;BME280;48139;47.474;19.034;2024-02-26T15:54:56;99639.03;;;13.25;100.00
62152;BME280;48139;47.474;19.034;2024-02-26T15:57:59;99634.28;;;13.05;100.00
62152;BME280;48139;47.474;19.034;2024-02-26T16:01:03;99635.69;;;13.23;100.00
62152;BME280;48139;47.474;19.034;2024-02-26T16:04:17;99636.09;;;13.17;100.00
62152;BME280;48139;47.474;19.034;2024-02-26T16:07:25;99630.06;;;12.89;100.00
62152;BME280;48139;47.474;19.034;2024-02-26T16:10:30;99630.91;;;13.03;100.00
62152;BME280;48139;47.474;19.034;2024-02-26T16:13:33;99635.13;;;12.80;100.00
62152;BME280;48139;47.474;19.034;2024-02-26T16:16:38;99644.63;;;12.56;100.00
62152;BME280;48139;47.474;19.034;2024-02-26T16:19:44;99646.44;;;12.55;100.00
62152;BME280;48139;47.474;19.034;2024-02-26T16:22:47;99640.31;;;12.42;100.00
62152;BME280;48139;47.474;19.034;2024-02-26T16:25:50;99655.91;;;12.31;100.00
62152;BME280;48139;47.474;19.034;2024-02-26T16:28:53;99652.31;;;12.19;100.00
62152;BME280;48139;47.474;19.034;2024-02-26T16:31:56;99658.34;;;12.07;100.00
62152;BME280;48139;47.474;19.034;2024-02-26T16:35:00;99662.03;;;12.04;100.00
62152;BME280;48139;47.474;19.034;2024-02-26T16:38:03;99660.38;;;11.89;100.00
62152;BME280;48139;47.474;19.034;2024-02-26T16:41:06;99668.63;;;11.83;100.00
62152;BME280;48139;47.474;19.034;2024-02-26T16:44:08;99676.72;;;11.80;100.00
62152;BME280;48139;47.474;19.034;2024-02-26T16:47:11;99692.12;;;11.70;100.00
62152;BME280;48139;47.474;19.034;2024-02-26T16:50:14;99690.91;;;11.62;100.00
62152;BME280;48139;47.474;19.034;2024-02-26T16:53:17;99697.69;;;11.52;100.00
62152;BME280;48139;47.474;19.034;2024-02-26T16:56:19;99696.37;;;11.45;100.00
62152;BME280;48139;47.474;19.034;2024-02-26T16:59:23;99701.25;;;11.37;100.00
